sensor_id;sensor_type;location;lat;lon;timestamp;P1;durP1;ratioP1;P2;durP2;ratioP2
11500;SDS011;5807;51.606;7.624;2022-10-26T00:02:02;12.73;;;9.80;;
11500;SDS011;5807;51.606;7.624;2022-10-26T00:04:28;12.77;;;9.17;;
11500;SDS011;5807;51.606;7.624;2022-10-26T00:06:55;16.47;;;9.07;;
11500;SDS011;5807;51.606;7.624;2022-10-26T00:09:22;10.77;;;9.17;;
11500;SDS011;5807;51.606;7.624;2022-10-26T00:11:50;10.73;;;9.07;;
11500;SDS011;5807;51.606;7.624;2022-10-26T00:14:17;16.23;;;8.83;;
11500;SDS011;5807;51.606;7.624;2022-10-26T00:16:44;13.20;;;8.50;;
11500;SDS011;5807;51.606;7.624;2022-10-26T00:19:11;10.90;;;8.33;;
11500;SDS011;5807;51.606;7.624;2022-10-26T00:21:38;14.37;;;8.13;;
11500;SDS011;5807;51.606;7.624;2022-10-26T00:24:05;11.97;;;8.13;;
11500;SDS011;5807;51.606;7.624;2022-10-26T00:26:31;16.37;;;7.77;;
11500;SDS011;5807;51.606;7.624;2022-10-26T00:29:00;11.10;;;8.80;;
11500;SDS011;5807;51.606;7.624;2022-10-26T00:31:26;13.70;;;8.30;;
11500;SDS011;5807;51.606;7.624;2022-10-26T00:33:54;13.10;;;8.80;;
11500;SDS011;5807;51.606;7.624;2022-10-26T00:36:21;9.87;;;7.83;;
11500;SDS011;5807;51.606;7.624;2022-10-26T00:38:48;8.53;;;7.40;;
11500;SDS011;5807;51.606;7.624;2022-10-26T00:41:16;8.90;;;7.20;;
11500;SDS011;5807;51.606;7.624;2022-10-26T00:43:44;12.83;;;7.67;;
11500;SDS011;5807;51.606;7.624;2022-10-26T00:46:14;12.83;;;7.10;;
11500;SDS011;5807;51.606;7.624;2022-10-26T00:48:43;14.13;;;7.63;;
11500;SDS011;5807;51.606;7.624;2022-10-26T00:51:14;7.53;;;6.27;;
11500;SDS011;5807;51.606;7.624;2022-10-26T00:53:47;12.50;;;6.53;;
11500;SDS011;5807;51.606;7.624;2022-10-26T00:56:14;8.10;;;7.10;;
11500;SDS011;5807;51.606;7.624;2022-10-26T00:58:42;9.27;;;6.50;;
11500;SDS011;5807;51.606;7.624;2022-10-26T01:01:09;8.37;;;6.00;;
11500;SDS011;5807;51.606;7.624;2022-10-26T01:03:38;9.90;;;6.17;;
11500;SDS011;5807;51.606;7.624;2022-10-26T01:06:04;10.20;;;6.50;;
11500;SDS011;5807;51.606;7.624;2022-10-26T01:08:33;7.13;;;5.40;;
11500;SDS011;5807;51.606;7.624;2022-10-26T01:11:00;11.20;;;6.50;;
11500;SDS011;5807;51.606;7.624;2022-10-26T01:13:29;9.03;;;5.97;;
11500;SDS011;5807;51.606;7.624;2022-10-26T01:16:01;10.90;;;5.43;;
11500;SDS011;5807;51.606;7.624;2022-10-26T01:18:39;11.07;;;6.27;;
11500;SDS011;5807;51.606;7.624;2022-10-26T01:21:16;7.10;;;6.40;;
11500;SDS011;5807;51.606;7.624;2022-10-26T01:24:04;8.00;;;5.83;;
11500;SDS011;5807;51.606;7.624;2022-10-26T01:26:46;7.73;;;5.57;;
11500;SDS011;5807;51.606;7.624;2022-10-26T01:29:29;6.57;;;5.07;;
11500;SDS011;5807;51.606;7.624;2022-10-26T01:32:21;7.03;;;4.83;;
11500;SDS011;5807;51.606;7.624;2022-10-26T01:34:52;10.27;;;5.53;;
11500;SDS011;5807;51.606;7.624;2022-10-26T01:37:25;6.70;;;4.43;;
11500;SDS011;5807;51.606;7.624;2022-10-26T01:39:57;6.53;;;4.97;;
11500;SDS011;5807;51.606;7.624;2022-10-26T01:42:29;7.57;;;5.40;;
11500;SDS011;5807;51.606;7.624;2022-10-26T01:44:58;8.53;;;4.90;;
11500;SDS011;5807;51.606;7.624;2022-10-26T01:47:30;8.97;;;5.53;;
11500;SDS011;5807;51.606;7.624;2022-10-26T01:49:59;7.77;;;5.33;;
11500;SDS011;5807;51.606;7.624;2022-10-26T01:52:27;7.07;;;5.17;;
11500;SDS011;5807;51.606;7.624;2022-10-26T01:54:59;7.87;;;5.47;;
11500;SDS011;5807;51.606;7.624;2022-10-26T01:57:26;6.57;;;5.97;;
11500;SDS011;5807;51.606;7.624;2022-10-26T02:00:05;12.23;;;5.57;;
11500;SDS011;5807;51.606;7.624;2022-10-26T02:02:44;9.27;;;5.63;;
11500;SDS011;5807;51.606;7.624;2022-10-26T02:05:47;9.47;;;5.67;;
11500;SDS011;5807;51.606;7.624;2022-10-26T02:08:25;9.57;;;5.67;;
11500;SDS011;5807;51.606;7.624;2022-10-26T02:11:01;9.23;;;5.63;;
11500;SDS011;5807;51.606;7.624;2022-10-26T02:13:32;10.20;;;6.03;;
11500;SDS011;5807;51.606;7.624;2022-10-26T02:16:09;9.00;;;6.07;;
11500;SDS011;5807;51.606;7.624;2022-10-26T02:18:57;10.13;;;6.67;;
11500;SDS011;5807;51.606;7.624;2022-10-26T02:21:28;5.83;;;5.33;;
11500;SDS011;5807;51.606;7.624;2022-10-26T02:24:00;10.60;;;5.60;;
11500;SDS011;5807;51.606;7.624;2022-10-26T02:26:28;8.07;;;6.07;;
11500;SDS011;5807;51.606;7.624;2022-10-26T02:28:59;9.20;;;6.00;;
11500;SDS011;5807;51.606;7.624;2022-10-26T02:31:30;11.13;;;6.10;;
11500;SDS011;5807;51.606;7.624;2022-10-26T02:34:00;6.77;;;5.53;;
11500;SDS011;5807;51.606;7.624;2022-10-26T02:36:29;7.87;;;5.63;;
11500;SDS011;5807;51.606;7.624;2022-10-26T02:38:59;6.47;;;5.10;;
11500;SDS011;5807;51.606;7.624;2022-10-26T02:41:28;7.23;;;5.23;;
11500;SDS011;5807;51.606;7.624;2022-10-26T02:43:58;11.17;;;4.77;;
11500;SDS011;5807;51.606;7.624;2022-10-26T02:46:27;5.47;;;4.33;;
11500;SDS011;5807;51.606;7.624;2022-10-26T02:48:54;8.40;;;4.17;;
11500;SDS011;5807;51.606;7.624;2022-10-26T02:51:26;7.00;;;4.67;;
11500;SDS011;5807;51.606;7.624;2022-10-26T02:54:00;6.93;;;4.53;;
11500;SDS011;5807;51.606;7.624;2022-10-26T02:56:35;5.80;;;4.40;;
11500;SDS011;5807;51.606;7.624;2022-10-26T02:59:08;8.97;;;4.70;;
11500;SDS011;5807;51.606;7.624;2022-10-26T03:01:38;5.70;;;4.30;;
11500;SDS011;5807;51.606;7.624;2022-10-26T03:04:06;7.97;;;4.63;;
11500;SDS011;5807;51.606;7.624;2022-10-26T03:06:34;9.87;;;4.57;;
11500;SDS011;5807;51.606;7.624;2022-10-26T03:09:01;7.00;;;4.47;;
11500;SDS011;5807;51.606;7.624;2022-10-26T03:11:28;7.23;;;5.17;;
11500;SDS011;5807;51.606;7.624;2022-10-26T03:13:55;7.00;;;4.60;;
11500;SDS011;5807;51.606;7.624;2022-10-26T03:16:22;6.63;;;5.10;;
11500;SDS011;5807;51.606;7.624;2022-10-26T03:18:48;8.77;;;5.40;;
11500;SDS011;5807;51.606;7.624;2022-10-26T03:21:15;7.40;;;5.50;;
11500;SDS011;5807;51.606;7.624;2022-10-26T03:23:44;8.13;;;5.20;;
11500;SDS011;5807;51.606;7.624;2022-10-26T03:26:11;7.87;;;5.30;;
11500;SDS011;5807;51.606;7.624;2022-10-26T03:28:38;7.40;;;5.20;;
11500;SDS011;5807;51.606;7.624;2022-10-26T03:31:05;6.97;;;5.53;;
11500;SDS011;5807;51.606;7.624;2022-10-26T03:33:33;8.60;;;6.43;;
11500;SDS011;5807;51.606;7.624;2022-10-26T03:36:00;8.17;;;4.93;;
11500;SDS011;5807;51.606;7.624;2022-10-26T03:38:26;8.00;;;5.17;;
11500;SDS011;5807;51.606;7.624;2022-10-26T03:40:55;7.53;;;5.00;;
11500;SDS011;5807;51.606;7.624;2022-10-26T03:43:21;6.80;;;5.40;;
11500;SDS011;5807;51.606;7.624;2022-10-26T03:45:48;6.87;;;4.83;;
11500;SDS011;5807;51.606;7.624;2022-10-26T03:48:15;8.67;;;5.73;;
11500;SDS011;5807;51.606;7.624;2022-10-26T03:50:42;7.43;;;4.10;;
11500;SDS011;5807;51.606;7.624;2022-10-26T03:53:09;7.80;;;4.83;;
11500;SDS011;5807;51.606;7.624;2022-10-26T03:55:36;6.67;;;4.40;;
11500;SDS011;5807;51.606;7.624;2022-10-26T03:58:04;6.53;;;4.53;;
11500;SDS011;5807;51.606;7.624;2022-10-26T04:00:31;7.47;;;4.07;;
11500;SDS011;5807;51.606;7.624;2022-10-26T04:02:58;5.87;;;4.47;;
11500;SDS011;5807;51.606;7.624;2022-10-26T04:05:26;6.40;;;4.40;;
11500;SDS011;5807;51.606;7.624;2022-10-26T04:07:54;6.87;;;4.40;;
11500;SDS011;5807;51.606;7.624;2022-10-26T04:10:22;7.37;;;4.43;;
11500;SDS011;5807;51.606;7.624;2022-10-26T04:12:50;5.77;;;4.30;;
11500;SDS011;5807;51.606;7.624;2022-10-26T04:15:18;4.80;;;4.30;;
11500;SDS011;5807;51.606;7.624;2022-10-26T04:17:45;4.90;;;3.87;;
11500;SDS011;5807;51.606;7.624;2022-10-26T04:20:12;5.47;;;3.90;;
11500;SDS011;5807;51.606;7.624;2022-10-26T04:22:40;8.03;;;4.67;;
11500;SDS011;5807;51.606;7.624;2022-10-26T04:25:07;7.40;;;4.77;;
11500;SDS011;5807;51.606;7.624;2022-10-26T04:27:36;7.63;;;4.73;;
11500;SDS011;5807;51.606;7.624;2022-10-26T04:30:03;6.60;;;4.43;;
11500;SDS011;5807;51.606;7.624;2022-10-26T04:32:35;4.80;;;4.20;;
11500;SDS011;5807;51.606;7.624;2022-10-26T04:35:02;7.53;;;4.53;;
11500;SDS011;5807;51.606;7.624;2022-10-26T04:37:29;8.53;;;4.37;;
11500;SDS011;5807;51.606;7.624;2022-10-26T04:39:56;7.30;;;4.57;;
11500;SDS011;5807;51.606;7.624;2022-10-26T04:42:24;7.50;;;4.60;;
11500;SDS011;5807;51.606;7.624;2022-10-26T04:44:51;7.93;;;4.80;;
11500;SDS011;5807;51.606;7.624;2022-10-26T04:47:18;5.50;;;4.60;;
11500;SDS011;5807;51.606;7.624;2022-10-26T04:49:46;7.80;;;4.70;;
11500;SDS011;5807;51.606;7.624;2022-10-26T04:52:13;4.90;;;4.47;;
11500;SDS011;5807;51.606;7.624;2022-10-26T04:54:40;7.83;;;4.30;;
11500;SDS011;5807;51.606;7.624;2022-10-26T04:57:07;5.73;;;4.50;;
11500;SDS011;5807;51.606;7.624;2022-10-26T04:59:35;11.53;;;4.43;;
11500;SDS011;5807;51.606;7.624;2022-10-26T05:02:02;5.97;;;4.30;;
11500;SDS011;5807;51.606;7.624;2022-10-26T05:04:29;5.13;;;4.47;;
11500;SDS011;5807;51.606;7.624;2022-10-26T05:06:57;4.70;;;4.30;;
11500;SDS011;5807;51.606;7.624;2022-10-26T05:09:25;7.30;;;4.77;;
11500;SDS011;5807;51.606;7.624;2022-10-26T05:11:52;5.33;;;4.77;;
11500;SDS011;5807;51.606;7.624;2022-10-26T05:14:18;4.87;;;4.20;;
11500;SDS011;5807;51.606;7.624;2022-10-26T05:16:45;5.37;;;4.30;;
11500;SDS011;5807;51.606;7.624;2022-10-26T05:19:12;5.03;;;4.40;;
11500;SDS011;5807;51.606;7.624;2022-10-26T05:21:39;7.53;;;5.37;;
11500;SDS011;5807;51.606;7.624;2022-10-26T05:24:08;8.70;;;4.90;;
11500;SDS011;5807;51.606;7.624;2022-10-26T05:26:35;13.13;;;5.23;;
11500;SDS011;5807;51.606;7.624;2022-10-26T05:29:02;7.00;;;4.87;;
11500;SDS011;5807;51.606;7.624;2022-10-26T05:31:29;5.57;;;4.37;;
11500;SDS011;5807;51.606;7.624;2022-10-26T05:33:58;6.77;;;5.20;;
11500;SDS011;5807;51.606;7.624;2022-10-26T05:36:25;6.70;;;5.20;;
11500;SDS011;5807;51.606;7.624;2022-10-26T05:38:52;6.37;;;4.67;;
11500;SDS011;5807;51.606;7.624;2022-10-26T05:41:25;5.73;;;4.43;;
11500;SDS011;5807;51.606;7.624;2022-10-26T05:43:52;7.90;;;4.73;;
11500;SDS011;5807;51.606;7.624;2022-10-26T05:46:19;6.03;;;5.43;;
11500;SDS011;5807;51.606;7.624;2022-10-26T05:48:45;10.10;;;6.27;;
11500;SDS011;5807;51.606;7.624;2022-10-26T05:51:12;7.20;;;6.47;;
11500;SDS011;5807;51.606;7.624;2022-10-26T05:53:40;6.07;;;5.47;;
11500;SDS011;5807;51.606;7.624;2022-10-26T05:56:10;12.03;;;6.03;;
11500;SDS011;5807;51.606;7.624;2022-10-26T05:58:45;9.10;;;5.20;;
11500;SDS011;5807;51.606;7.624;2022-10-26T06:01:14;9.60;;;5.77;;
11500;SDS011;5807;51.606;7.624;2022-10-26T06:03:55;9.00;;;5.40;;
11500;SDS011;5807;51.606;7.624;2022-10-26T06:06:33;7.60;;;4.90;;
11500;SDS011;5807;51.606;7.624;2022-10-26T06:09:04;8.80;;;5.30;;
11500;SDS011;5807;51.606;7.624;2022-10-26T06:11:31;5.80;;;5.30;;
11500;SDS011;5807;51.606;7.624;2022-10-26T06:14:00;10.83;;;8.37;;
11500;SDS011;5807;51.606;7.624;2022-10-26T06:16:31;10.77;;;8.60;;
11500;SDS011;5807;51.606;7.624;2022-10-26T06:19:06;9.90;;;7.50;;
11500;SDS011;5807;51.606;7.624;2022-10-26T06:21:51;9.70;;;7.00;;
11500;SDS011;5807;51.606;7.624;2022-10-26T06:24:30;9.80;;;6.60;;
11500;SDS011;5807;51.606;7.624;2022-10-26T06:27:07;14.00;;;7.77;;
11500;SDS011;5807;51.606;7.624;2022-10-26T06:29:46;8.50;;;7.53;;
11500;SDS011;5807;51.606;7.624;2022-10-26T06:32:18;10.43;;;6.93;;
11500;SDS011;5807;51.606;7.624;2022-10-26T06:34:47;6.87;;;6.27;;
11500;SDS011;5807;51.606;7.624;2022-10-26T06:37:16;7.67;;;5.90;;
11500;SDS011;5807;51.606;7.624;2022-10-26T06:39:44;8.13;;;6.07;;
11500;SDS011;5807;51.606;7.624;2022-10-26T06:42:13;6.13;;;5.27;;
11500;SDS011;5807;51.606;7.624;2022-10-26T06:44:40;8.33;;;5.10;;
11500;SDS011;5807;51.606;7.624;2022-10-26T06:47:12;8.70;;;5.30;;
11500;SDS011;5807;51.606;7.624;2022-10-26T06:49:48;8.50;;;6.03;;
11500;SDS011;5807;51.606;7.624;2022-10-26T06:52:26;6.33;;;5.00;;
11500;SDS011;5807;51.606;7.624;2022-10-26T06:54:59;5.20;;;4.53;;
11500;SDS011;5807;51.606;7.624;2022-10-26T06:57:27;5.37;;;4.80;;
11500;SDS011;5807;51.606;7.624;2022-10-26T06:59:59;7.47;;;4.87;;
11500;SDS011;5807;51.606;7.624;2022-10-26T07:02:31;7.27;;;5.33;;
11500;SDS011;5807;51.606;7.624;2022-10-26T07:04:58;5.43;;;4.90;;
11500;SDS011;5807;51.606;7.624;2022-10-26T07:07:26;7.47;;;6.00;;
11500;SDS011;5807;51.606;7.624;2022-10-26T07:09:54;9.10;;;6.70;;
11500;SDS011;5807;51.606;7.624;2022-10-26T07:12:21;12.80;;;5.73;;
11500;SDS011;5807;51.606;7.624;2022-10-26T07:14:48;7.47;;;5.57;;
11500;SDS011;5807;51.606;7.624;2022-10-26T07:17:15;10.80;;;6.27;;
11500;SDS011;5807;51.606;7.624;2022-10-26T07:19:44;10.13;;;6.70;;
11500;SDS011;5807;51.606;7.624;2022-10-26T07:22:11;12.00;;;7.27;;
11500;SDS011;5807;51.606;7.624;2022-10-26T07:24:38;9.33;;;7.43;;
11500;SDS011;5807;51.606;7.624;2022-10-26T07:27:05;9.20;;;6.67;;
11500;SDS011;5807;51.606;7.624;2022-10-26T07:29:32;8.30;;;7.50;;
11500;SDS011;5807;51.606;7.624;2022-10-26T07:32:00;9.70;;;7.73;;
11500;SDS011;5807;51.606;7.624;2022-10-26T07:34:27;12.23;;;7.87;;
11500;SDS011;5807;51.606;7.624;2022-10-26T07:36:55;9.17;;;7.30;;
11500;SDS011;5807;51.606;7.624;2022-10-26T07:39:24;8.80;;;7.90;;
11500;SDS011;5807;51.606;7.624;2022-10-26T07:41:51;8.70;;;7.80;;
11500;SDS011;5807;51.606;7.624;2022-10-26T07:44:18;10.53;;;7.53;;
11500;SDS011;5807;51.606;7.624;2022-10-26T07:46:45;8.13;;;7.33;;
11500;SDS011;5807;51.606;7.624;2022-10-26T07:49:12;11.03;;;7.33;;
11500;SDS011;5807;51.606;7.624;2022-10-26T07:51:39;8.63;;;7.43;;
11500;SDS011;5807;51.606;7.624;2022-10-26T07:54:08;9.00;;;7.43;;
11500;SDS011;5807;51.606;7.624;2022-10-26T07:56:35;8.27;;;7.50;;
11500;SDS011;5807;51.606;7.624;2022-10-26T07:59:02;9.57;;;7.00;;
11500;SDS011;5807;51.606;7.624;2022-10-26T08:01:28;9.67;;;6.50;;
11500;SDS011;5807;51.606;7.624;2022-10-26T08:03:55;10.17;;;6.37;;
11500;SDS011;5807;51.606;7.624;2022-10-26T08:06:22;10.33;;;5.83;;
11500;SDS011;5807;51.606;7.624;2022-10-26T08:08:50;11.13;;;6.70;;
11500;SDS011;5807;51.606;7.624;2022-10-26T08:11:18;10.73;;;6.07;;
11500;SDS011;5807;51.606;7.624;2022-10-26T08:13:45;7.13;;;5.20;;
11500;SDS011;5807;51.606;7.624;2022-10-26T08:16:12;8.37;;;5.47;;
11500;SDS011;5807;51.606;7.624;2022-10-26T08:18:39;8.63;;;5.80;;
11500;SDS011;5807;51.606;7.624;2022-10-26T08:21:06;9.13;;;5.43;;
11500;SDS011;5807;51.606;7.624;2022-10-26T08:23:37;6.53;;;5.17;;
11500;SDS011;5807;51.606;7.624;2022-10-26T08:26:04;5.60;;;4.97;;
11500;SDS011;5807;51.606;7.624;2022-10-26T08:28:33;5.80;;;4.57;;
11500;SDS011;5807;51.606;7.624;2022-10-26T08:31:00;8.73;;;5.20;;
11500;SDS011;5807;51.606;7.624;2022-10-26T08:33:27;4.97;;;4.33;;
11500;SDS011;5807;51.606;7.624;2022-10-26T08:35:54;8.63;;;4.23;;
11500;SDS011;5807;51.606;7.624;2022-10-26T08:38:21;5.20;;;4.70;;
11500;SDS011;5807;51.606;7.624;2022-10-26T08:40:48;7.50;;;5.23;;
11500;SDS011;5807;51.606;7.624;2022-10-26T08:43:16;7.73;;;4.80;;
11500;SDS011;5807;51.606;7.624;2022-10-26T08:45:49;8.20;;;5.23;;
11500;SDS011;5807;51.606;7.624;2022-10-26T08:48:18;8.77;;;5.50;;
11500;SDS011;5807;51.606;7.624;2022-10-26T08:50:49;11.93;;;4.97;;
11500;SDS011;5807;51.606;7.624;2022-10-26T08:53:19;10.47;;;4.97;;
11500;SDS011;5807;51.606;7.624;2022-10-26T08:55:51;7.27;;;4.73;;
11500;SDS011;5807;51.606;7.624;2022-10-26T08:58:22;5.63;;;4.07;;
11500;SDS011;5807;51.606;7.624;2022-10-26T09:00:55;6.53;;;3.67;;
11500;SDS011;5807;51.606;7.624;2022-10-26T09:03:22;6.63;;;3.90;;
11500;SDS011;5807;51.606;7.624;2022-10-26T09:05:57;4.23;;;3.43;;
11500;SDS011;5807;51.606;7.624;2022-10-26T09:08:40;3.73;;;3.17;;
11500;SDS011;5807;51.606;7.624;2022-10-26T09:11:17;3.17;;;1.80;;
11500;SDS011;5807;51.606;7.624;2022-10-26T09:13:57;4.27;;;2.10;;
11500;SDS011;5807;51.606;7.624;2022-10-26T09:16:31;3.17;;;1.73;;
11500;SDS011;5807;51.606;7.624;2022-10-26T09:19:15;4.10;;;1.67;;
11500;SDS011;5807;51.606;7.624;2022-10-26T09:21:47;2.70;;;1.70;;
11500;SDS011;5807;51.606;7.624;2022-10-26T09:24:25;2.27;;;1.43;;
11500;SDS011;5807;51.606;7.624;2022-10-26T09:26:56;3.53;;;1.50;;
11500;SDS011;5807;51.606;7.624;2022-10-26T09:29:28;1.93;;;1.40;;
11500;SDS011;5807;51.606;7.624;2022-10-26T09:32:01;6.43;;;1.60;;
11500;SDS011;5807;51.606;7.624;2022-10-26T09:34:30;2.63;;;1.90;;
11500;SDS011;5807;51.606;7.624;2022-10-26T09:37:04;1.60;;;1.50;;
11500;SDS011;5807;51.606;7.624;2022-10-26T09:39:37;2.93;;;1.50;;
11500;SDS011;5807;51.606;7.624;2022-10-26T09:42:12;1.57;;;1.47;;
11500;SDS011;5807;51.606;7.624;2022-10-26T09:44:44;4.33;;;1.57;;
11500;SDS011;5807;51.606;7.624;2022-10-26T09:47:24;6.90;;;1.87;;
11500;SDS011;5807;51.606;7.624;2022-10-26T09:50:00;3.93;;;1.50;;
11500;SDS011;5807;51.606;7.624;2022-10-26T09:52:32;2.30;;;1.50;;
11500;SDS011;5807;51.606;7.624;2022-10-26T09:54:59;1.97;;;1.60;;
11500;SDS011;5807;51.606;7.624;2022-10-26T09:57:26;6.57;;;2.07;;
11500;SDS011;5807;51.606;7.624;2022-10-26T09:59:53;2.20;;;1.80;;
11500;SDS011;5807;51.606;7.624;2022-10-26T10:02:35;1.77;;;1.63;;
11500;SDS011;5807;51.606;7.624;2022-10-26T10:05:27;2.47;;;1.60;;
11500;SDS011;5807;51.606;7.624;2022-10-26T10:08:08;2.73;;;1.73;;
11500;SDS011;5807;51.606;7.624;2022-10-26T10:10:38;3.27;;;1.93;;
11500;SDS011;5807;51.606;7.624;2022-10-26T10:13:14;3.50;;;2.10;;
11500;SDS011;5807;51.606;7.624;2022-10-26T10:15:49;5.00;;;1.93;;
11500;SDS011;5807;51.606;7.624;2022-10-26T10:18:20;5.93;;;1.70;;
11500;SDS011;5807;51.606;7.624;2022-10-26T10:20:49;6.80;;;1.80;;
11500;SDS011;5807;51.606;7.624;2022-10-26T10:23:26;2.40;;;2.17;;
11500;SDS011;5807;51.606;7.624;2022-10-26T10:25:59;5.97;;;1.77;;
11500;SDS011;5807;51.606;7.624;2022-10-26T10:28:27;6.17;;;1.90;;
11500;SDS011;5807;51.606;7.624;2022-10-26T10:30:56;2.40;;;1.60;;
11500;SDS011;5807;51.606;7.624;2022-10-26T10:33:38;4.03;;;1.90;;
11500;SDS011;5807;51.606;7.624;2022-10-26T10:36:08;2.77;;;2.10;;
11500;SDS011;5807;51.606;7.624;2022-10-26T10:38:37;2.17;;;1.90;;
11500;SDS011;5807;51.606;7.624;2022-10-26T10:41:13;2.87;;;1.70;;
11500;SDS011;5807;51.606;7.624;2022-10-26T10:43:43;3.07;;;1.47;;
11500;SDS011;5807;51.606;7.624;2022-10-26T10:46:16;3.87;;;1.77;;
11500;SDS011;5807;51.606;7.624;2022-10-26T10:48:47;2.27;;;1.80;;
11500;SDS011;5807;51.606;7.624;2022-10-26T10:51:17;2.23;;;1.80;;
11500;SDS011;5807;51.606;7.624;2022-10-26T10:53:47;3.83;;;1.70;;
11500;SDS011;5807;51.606;7.624;2022-10-26T10:56:22;2.50;;;1.80;;
11500;SDS011;5807;51.606;7.624;2022-10-26T10:59:00;3.87;;;1.90;;
11500;SDS011;5807;51.606;7.624;2022-10-26T11:01:46;2.90;;;1.80;;
11500;SDS011;5807;51.606;7.624;2022-10-26T11:04:23;1.97;;;1.70;;
11500;SDS011;5807;51.606;7.624;2022-10-26T11:07:06;2.10;;;1.63;;
11500;SDS011;5807;51.606;7.624;2022-10-26T11:09:35;3.23;;;1.60;;
11500;SDS011;5807;51.606;7.624;2022-10-26T11:12:06;5.13;;;2.10;;
11500;SDS011;5807;51.606;7.624;2022-10-26T11:14:39;3.90;;;2.37;;
11500;SDS011;5807;51.606;7.624;2022-10-26T11:17:12;3.60;;;2.10;;
11500;SDS011;5807;51.606;7.624;2022-10-26T11:19:46;3.50;;;2.40;;
11500;SDS011;5807;51.606;7.624;2022-10-26T11:22:16;2.00;;;1.77;;
11500;SDS011;5807;51.606;7.624;2022-10-26T11:24:48;5.30;;;1.80;;
11500;SDS011;5807;51.606;7.624;2022-10-26T11:27:20;5.17;;;2.20;;
11500;SDS011;5807;51.606;7.624;2022-10-26T11:29:55;2.70;;;1.90;;
11500;SDS011;5807;51.606;7.624;2022-10-26T11:32:29;4.10;;;2.10;;
11500;SDS011;5807;51.606;7.624;2022-10-26T11:35:08;2.60;;;1.83;;
11500;SDS011;5807;51.606;7.624;2022-10-26T11:37:38;2.67;;;2.07;;
11500;SDS011;5807;51.606;7.624;2022-10-26T11:40:13;4.30;;;2.50;;
11500;SDS011;5807;51.606;7.624;2022-10-26T11:42:49;7.27;;;2.10;;
11500;SDS011;5807;51.606;7.624;2022-10-26T11:45:24;3.13;;;1.93;;
11500;SDS011;5807;51.606;7.624;2022-10-26T11:47:56;3.70;;;1.80;;
11500;SDS011;5807;51.606;7.624;2022-10-26T11:50:31;4.00;;;2.10;;
11500;SDS011;5807;51.606;7.624;2022-10-26T11:53:01;3.13;;;2.10;;
11500;SDS011;5807;51.606;7.624;2022-10-26T11:55:34;4.93;;;2.00;;
11500;SDS011;5807;51.606;7.624;2022-10-26T11:58:02;6.77;;;2.53;;
11500;SDS011;5807;51.606;7.624;2022-10-26T12:00:29;4.80;;;2.03;;
11500;SDS011;5807;51.606;7.624;2022-10-26T12:03:00;3.83;;;2.33;;
11500;SDS011;5807;51.606;7.624;2022-10-26T12:05:34;2.57;;;2.17;;
11500;SDS011;5807;51.606;7.624;2022-10-26T12:08:10;5.53;;;2.73;;
11500;SDS011;5807;51.606;7.624;2022-10-26T12:10:42;8.33;;;2.10;;
11500;SDS011;5807;51.606;7.624;2022-10-26T12:13:17;3.67;;;2.27;;
11500;SDS011;5807;51.606;7.624;2022-10-26T12:15:53;4.70;;;2.50;;
11500;SDS011;5807;51.606;7.624;2022-10-26T12:18:28;4.00;;;2.30;;
11500;SDS011;5807;51.606;7.624;2022-10-26T12:21:04;4.87;;;2.13;;
11500;SDS011;5807;51.606;7.624;2022-10-26T12:23:33;6.93;;;2.87;;
11500;SDS011;5807;51.606;7.624;2022-10-26T12:31:53;2.57;;;2.30;;
11500;SDS011;5807;51.606;7.624;2022-10-26T12:34:21;3.13;;;1.90;;
11500;SDS011;5807;51.606;7.624;2022-10-26T12:37:09;3.83;;;1.90;;
11500;SDS011;5807;51.606;7.624;2022-10-26T12:39:47;2.43;;;1.90;;
11500;SDS011;5807;51.606;7.624;2022-10-26T12:42:27;2.60;;;2.10;;
11500;SDS011;5807;51.606;7.624;2022-10-26T12:45:05;4.03;;;2.10;;
11500;SDS011;5807;51.606;7.624;2022-10-26T12:50:26;3.93;;;1.87;;
11500;SDS011;5807;51.606;7.624;2022-10-26T12:52:54;2.17;;;1.90;;
11500;SDS011;5807;51.606;7.624;2022-10-26T12:55:29;3.83;;;1.70;;
11500;SDS011;5807;51.606;7.624;2022-10-26T13:04:12;4.80;;;1.90;;
11500;SDS011;5807;51.606;7.624;2022-10-26T13:06:48;5.80;;;1.70;;
11500;SDS011;5807;51.606;7.624;2022-10-26T13:09:36;3.87;;;1.90;;
11500;SDS011;5807;51.606;7.624;2022-10-26T13:12:04;2.37;;;1.80;;
11500;SDS011;5807;51.606;7.624;2022-10-26T13:14:32;5.40;;;2.10;;
11500;SDS011;5807;51.606;7.624;2022-10-26T13:17:02;3.20;;;1.80;;
11500;SDS011;5807;51.606;7.624;2022-10-26T13:19:31;5.37;;;1.90;;
11500;SDS011;5807;51.606;7.624;2022-10-26T13:22:05;3.50;;;1.93;;
11500;SDS011;5807;51.606;7.624;2022-10-26T13:24:42;1.80;;;1.70;;
11500;SDS011;5807;51.606;7.624;2022-10-26T13:27:21;2.20;;;1.70;;
11500;SDS011;5807;51.606;7.624;2022-10-26T13:30:12;2.13;;;1.70;;
11500;SDS011;5807;51.606;7.624;2022-10-26T13:33:00;3.00;;;2.07;;
11500;SDS011;5807;51.606;7.624;2022-10-26T13:35:28;1.60;;;1.50;;
11500;SDS011;5807;51.606;7.624;2022-10-26T13:37:57;1.93;;;1.60;;
11500;SDS011;5807;51.606;7.624;2022-10-26T13:40:34;3.17;;;1.63;;
11500;SDS011;5807;51.606;7.624;2022-10-26T13:43:03;4.27;;;2.43;;
11500;SDS011;5807;51.606;7.624;2022-10-26T13:45:33;4.10;;;1.87;;
11500;SDS011;5807;51.606;7.624;2022-10-26T13:48:10;3.37;;;2.27;;
11500;SDS011;5807;51.606;7.624;2022-10-26T13:50:43;6.37;;;2.10;;
11500;SDS011;5807;51.606;7.624;2022-10-26T13:53:14;3.07;;;2.00;;
11500;SDS011;5807;51.606;7.624;2022-10-26T13:55:49;2.23;;;1.90;;
11500;SDS011;5807;51.606;7.624;2022-10-26T13:58:19;3.73;;;2.37;;
11500;SDS011;5807;51.606;7.624;2022-10-26T14:01:10;6.07;;;1.90;;
11500;SDS011;5807;51.606;7.624;2022-10-26T14:03:40;3.23;;;2.17;;
11500;SDS011;5807;51.606;7.624;2022-10-26T14:06:10;3.00;;;1.90;;
11500;SDS011;5807;51.606;7.624;2022-10-26T14:08:42;2.20;;;1.87;;
11500;SDS011;5807;51.606;7.624;2022-10-26T14:11:13;4.07;;;1.80;;
11500;SDS011;5807;51.606;7.624;2022-10-26T14:13:42;3.17;;;1.53;;
11500;SDS011;5807;51.606;7.624;2022-10-26T14:16:09;2.63;;;1.93;;
11500;SDS011;5807;51.606;7.624;2022-10-26T14:18:38;3.50;;;1.80;;
11500;SDS011;5807;51.606;7.624;2022-10-26T14:21:07;2.17;;;1.83;;
11500;SDS011;5807;51.606;7.624;2022-10-26T14:23:44;1.93;;;1.83;;
11500;SDS011;5807;51.606;7.624;2022-10-26T14:26:19;1.70;;;1.60;;
11500;SDS011;5807;51.606;7.624;2022-10-26T14:28:48;3.43;;;1.90;;
11500;SDS011;5807;51.606;7.624;2022-10-26T14:31:23;4.40;;;2.00;;
11500;SDS011;5807;51.606;7.624;2022-10-26T14:33:52;1.83;;;1.73;;
11500;SDS011;5807;51.606;7.624;2022-10-26T14:36:21;3.77;;;1.77;;
11500;SDS011;5807;51.606;7.624;2022-10-26T14:38:53;2.20;;;1.80;;
11500;SDS011;5807;51.606;7.624;2022-10-26T14:41:25;2.70;;;1.40;;
11500;SDS011;5807;51.606;7.624;2022-10-26T14:43:53;2.70;;;1.60;;
11500;SDS011;5807;51.606;7.624;2022-10-26T14:46:22;7.90;;;2.10;;
11500;SDS011;5807;51.606;7.624;2022-10-26T14:48:50;3.20;;;1.77;;
11500;SDS011;5807;51.606;7.624;2022-10-26T14:51:19;2.43;;;1.77;;
11500;SDS011;5807;51.606;7.624;2022-10-26T14:53:51;4.37;;;1.80;;
11500;SDS011;5807;51.606;7.624;2022-10-26T14:56:20;3.07;;;1.60;;
11500;SDS011;5807;51.606;7.624;2022-10-26T14:58:54;2.13;;;1.57;;
11500;SDS011;5807;51.606;7.624;2022-10-26T15:01:27;2.97;;;1.87;;
11500;SDS011;5807;51.606;7.624;2022-10-26T15:03:57;1.23;;;1.20;;
11500;SDS011;5807;51.606;7.624;2022-10-26T15:06:29;1.53;;;1.20;;
11500;SDS011;5807;51.606;7.624;2022-10-26T15:09:03;2.77;;;1.53;;
11500;SDS011;5807;51.606;7.624;2022-10-26T15:11:32;1.50;;;1.50;;
11500;SDS011;5807;51.606;7.624;2022-10-26T15:14:00;2.10;;;1.60;;
11500;SDS011;5807;51.606;7.624;2022-10-26T15:16:28;2.80;;;1.50;;
11500;SDS011;5807;51.606;7.624;2022-10-26T15:18:58;5.33;;;1.50;;
11500;SDS011;5807;51.606;7.624;2022-10-26T15:21:33;2.17;;;1.30;;
11500;SDS011;5807;51.606;7.624;2022-10-26T15:24:09;2.43;;;1.70;;
11500;SDS011;5807;51.606;7.624;2022-10-26T15:26:49;4.57;;;1.70;;
11500;SDS011;5807;51.606;7.624;2022-10-26T15:29:35;2.63;;;1.47;;
11500;SDS011;5807;51.606;7.624;2022-10-26T15:32:03;2.00;;;1.60;;
11500;SDS011;5807;51.606;7.624;2022-10-26T15:34:31;1.87;;;1.77;;
11500;SDS011;5807;51.606;7.624;2022-10-26T15:36:58;6.60;;;1.70;;
11500;SDS011;5807;51.606;7.624;2022-10-26T15:39:25;2.03;;;1.80;;